Terminal Aerodrome Forecast
Issued by NWS Bismarck, ND

Home | Current Version | Previous Version | Text Only | Print | Product List | Glossary Off
Versions: 1 2 3 4 5 6 7 8 9 10 11 12 13 14 15 16 17 18 19 20 21 22 23 24 25

000
FTUS43 KBIS 201849 AAA
TAFBIS
TAF AMD
KBIS 201849Z 2019/2118 36005KT P6SM SCT012 BKN021
     FM202300 35009KT P6SM SCT025
     FM210600 07004KT 4SM BR FEW008
     FM211000 09004KT 3/4SM BR VV006
     FM211400 12005KT 6SM BR FEW090=

USA.gov is the U.S. government's official web portal to all federal, state and local government web resources and services.